Time;durP1;ratioP1;P1;durP2;ratioP2;P2;SDS_P1;SDS_P2;PMS_P1;PMS_P2;Temp;Humidity;BMP_temperature;BMP_pressure;BME280_temperature;BME280_humidity;BME280_pressure;Samples;Min_cycle;Max_cycle;Signal;HPM_P1;HPM_P2
2022/02/06 00:01:10;;;;;;;;;;;;;;;30.78;50.31;101066.22;5069826;28;67017;-35
2022/02/06 00:03:40;;;;;;;;;;;;;;;30.78;50.53;101066.22;5073797;28;70338;-35
2022/02/06 00:06:10;;;;;;;;;;;;;;;30.78;50.62;101077.06;5072057;28;66553;-35
2022/02/06 00:08:40;;;;;;;;;;;;;;;30.78;50.54;101080.59;5070638;28;70224;-35
2022/02/06 00:11:10;;;;;;;;;;;;;;;30.79;50.50;101089.59;5070904;28;66687;-35
2022/02/06 00:13:40;;;;;;;;;;;;;;;30.78;50.41;101096.03;5070622;28;69827;-36
2022/02/06 00:16:10;;;;;;;;;;;;;;;30.78;50.11;101096.03;5073245;27;66919;-35
2022/02/06 00:18:42;;;;;;;;;;;;;;;30.78;50.45;101101.44;5071040;28;70615;-35
2022/02/06 00:21:15;;;;;;;;;;;;;;;30.78;50.14;101094.16;5075979;27;65933;-35
2022/02/06 00:23:48;;;;;;;;;;;;;;;30.78;50.51;101098.72;5064215;28;70151;-36
2022/02/06 00:26:40;;;;;;;;;;;;;;;30.78;50.59;101090.59;5075066;28;67208;-35
2022/02/06 00:31:57;;;;;;;;;;;;;;;30.78;50.65;101104.16;5066662;28;65436;-36
2022/02/06 00:35:11;;;;;;;;;;;;;;;30.79;50.71;101105.84;5066235;28;69805;-36
2022/02/06 00:38:12;;;;;;;;;;;;;;;30.78;50.42;101107.69;5065914;27;66686;-36
2022/02/06 00:40:10;;;;;;;;;;;;;;;30.78;50.30;101109.56;5074895;28;69958;-36
2022/02/06 00:42:40;;;;;;;;;;;;;;;30.79;50.72;101101.25;5069113;28;66175;-35
2022/02/06 00:45:10;;;;;;;;;;;;;;;30.79;50.36;101117.50;5072523;28;69124;-36
2022/02/06 00:47:42;;;;;;;;;;;;;;;30.80;50.71;101110.22;5071126;28;65529;-36
2022/02/06 00:50:12;;;;;;;;;;;;;;;30.79;50.35;101124.78;5069015;28;69399;-36
2022/02/06 00:52:52;;;;;;;;;;;;;;;30.79;50.86;101127.50;5071669;28;65349;-36
2022/02/06 00:55:24;;;;;;;;;;;;;;;30.79;50.73;101133.75;5065637;28;69268;-35
2022/02/06 00:57:54;;;;;;;;;;;;;;;30.78;50.92;101139.34;5068422;28;66011;-36
2022/02/06 01:00:24;;;;;;;;;;;;;;;30.78;50.67;101148.31;5069666;28;69717;-35
2022/02/06 01:02:53;;;;;;;;;;;;;;;30.78;50.79;101148.31;5076049;28;66126;-35
2022/02/06 01:05:43;;;;;;;;;;;;;;;30.79;50.91;101151.88;5065290;28;70145;-35
2022/02/06 01:08:13;;;;;;;;;;;;;;;30.79;50.41;101154.59;5068965;28;65878;-35
2022/02/06 01:10:43;;;;;;;;;;;;;;;30.80;50.94;101156.28;5072154;28;69693;-35
2022/02/06 01:13:28;;;;;;;;;;;;;;;30.80;50.45;101154.38;5066920;28;65461;-35
2022/02/06 01:16:04;;;;;;;;;;;;;;;30.80;50.92;101156.28;5072258;28;69950;-35
2022/02/06 01:18:42;;;;;;;;;;;;;;;30.81;50.91;101160.63;5072101;28;66584;-35
2022/02/06 01:21:25;;;;;;;;;;;;;;;30.82;50.65;101159.59;5073359;28;69373;-35
2022/02/06 01:24:01;;;;;;;;;;;;;;;30.81;50.55;101158.75;5072523;27;66461;-35
2022/02/06 01:26:40;;;;;;;;;;;;;;;30.83;50.58;101166.66;5070286;28;70265;-35
2022/02/06 01:32:01;;;;;;;;;;;;;;;30.84;50.80;101169.19;5069434;28;69840;-36
2022/02/06 01:34:59;;;;;;;;;;;;;;;30.84;50.45;101168.31;5071126;27;65145;-36
2022/02/06 01:40:09;;;;;;;;;;;;;;;30.85;50.59;101170.84;5060934;28;66682;-36
2022/02/06 01:42:50;;;;;;;;;;;;;;;30.86;50.81;101174.38;5074478;28;70084;-36
2022/02/06 01:45:37;;;;;;;;;;;;;;;30.87;50.25;101176.03;5070646;27;66070;-36
2022/02/06 02:21:12;;;;;;;;;;;;;;;30.99;51.23;101171.63;5058119;28;43078;-36
2022/02/06 02:24:08;;;;;;;;;;;;;;;31.00;51.13;101167.84;5058309;28;67037;-35
2022/02/06 02:48:17;;;;;;;;;;;;;;;31.09;51.39;101172.00;5070836;27;70128;-35
2022/02/06 02:50:55;;;;;;;;;;;;;;;31.08;51.08;101156.78;5068704;28;65571;-35
2022/02/06 02:53:35;;;;;;;;;;;;;;;31.11;50.84;101159.06;5082047;27;70046;-35
2022/02/06 03:01:34;;;;;;;;;;;;;;;31.16;51.51;101151.13;5090501;27;65275;-36
2022/02/06 03:03:57;;;;;;;;;;;;;;;31.19;51.08;101157.97;5079851;27;69811;-35
2022/02/06 03:06:27;;;;;;;;;;;;;;;31.22;51.62;101156.72;5081308;28;66538;-38
2022/02/06 03:08:58;;;;;;;;;;;;;;;31.23;51.44;101152.94;5071840;28;70647;-36
2022/02/06 03:11:28;;;;;;;;;;;;;;;31.25;51.35;101150.88;5073585;28;67029;-36
2022/02/06 03:14:07;;;;;;;;;;;;;;;31.27;51.35;101151.50;5077244;27;68043;-36
2022/02/06 03:16:44;;;;;;;;;;;;;;;31.29;52.00;101150.22;5072731;27;65921;-38
2022/02/06 03:19:19;;;;;;;;;;;;;;;31.30;51.59;101138.31;5072492;28;70268;-35
2022/02/06 03:21:51;;;;;;;;;;;;;;;31.33;52.17;101139.78;5076753;28;66893;-35
2022/02/06 03:24:26;;;;;;;;;;;;;;;31.34;52.00;101130.56;5073323;28;69642;-36
2022/02/06 03:26:56;;;;;;;;;;;;;;;31.35;52.20;101129.56;5072183;27;66107;-37
2022/02/06 03:29:26;;;;;;;;;;;;;;;31.38;52.27;101129.16;5071127;28;70686;-36
2022/02/06 03:31:56;;;;;;;;;;;;;;;31.40;52.96;101135.19;5070163;27;66919;-36
2022/02/06 03:34:26;;;;;;;;;;;;;;;31.42;52.82;101138.50;5074567;27;69803;-36
2022/02/06 03:36:56;;;;;;;;;;;;;;;31.45;53.46;101137.22;5065895;27;65474;-36
2022/02/06 03:39:27;;;;;;;;;;;;;;;31.46;53.34;101136.19;5087938;27;69848;-36
2022/02/06 03:42:14;;;;;;;;;;;;;;;31.49;53.75;101139.28;5076035;27;64267;-36
2022/02/06 03:44:51;;;;;;;;;;;;;;;31.52;53.61;101144.28;5076995;27;71125;-35
2022/02/06 03:47:24;;;;;;;;;;;;;;;31.54;54.20;101141.34;5072217;28;66884;-36
2022/02/06 03:50:01;;;;;;;;;;;;;;;31.56;54.10;101137.34;5070955;28;70256;-37
2022/02/06 03:52:37;;;;;;;;;;;;;;;31.59;54.04;101125.25;5087458;27;66514;-36
2022/02/06 03:55:08;;;;;;;;;;;;;;;31.60;54.63;101125.03;5070217;27;69136;-37
2022/02/06 03:57:42;;;;;;;;;;;;;;;31.63;54.33;101112.09;5069683;27;66226;-35
2022/02/06 04:00:14;;;;;;;;;;;;;;;31.65;54.31;101120.81;5074002;27;72296;-35
2022/02/06 04:02:45;;;;;;;;;;;;;;;31.67;54.94;101124.16;5077900;27;65929;-36
2022/02/06 04:05:15;;;;;;;;;;;;;;;31.70;55.53;101126.41;5073280;28;69382;-35
2022/02/06 04:07:46;;;;;;;;;;;;;;;31.72;55.51;101121.59;5080269;27;65959;-36
2022/02/06 04:10:17;;;;;;;;;;;;;;;31.73;55.47;101118.69;5071827;28;70322;-36
2022/02/06 04:12:49;;;;;;;;;;;;;;;31.74;55.80;101114.09;5071808;28;66019;-37
2022/02/06 04:15:25;;;;;;;;;;;;;;;31.77;55.21;101121.78;5060172;28;68934;-36
2022/02/06 04:18:10;;;;;;;;;;;;;;;31.78;55.53;101109.88;5092699;27;66623;-36
2022/02/06 04:20:41;;;;;;;;;;;;;;;31.78;55.26;101110.69;5065458;27;69038;-37
2022/02/06 04:23:11;;;;;;;;;;;;;;;31.81;55.39;101101.28;5069338;28;65830;-37
2022/02/06 04:25:40;;;;;;;;;;;;;;;31.86;52.53;101087.91;5073869;27;69814;-35
2022/02/06 04:28:30;;;;;;;;;;;;;;;31.93;53.80;101085.13;5068500;27;67466;-36
2022/02/06 04:31:01;;;;;;;;;;;;;;;31.96;54.24;101080.13;5072430;27;69115;-36
2022/02/06 04:33:31;;;;;;;;;;;;;;;31.96;50.89;101069.28;5078451;27;66345;-37
2022/02/06 04:36:05;;;;;;;;;;;;;;;31.96;51.98;101063.03;5077663;28;69521;-36
2022/02/06 04:38:53;;;;;;;;;;;;;;;31.96;51.86;101053.00;5074233;27;66809;-37
2022/02/06 05:23:00;;;;;;;;;;;;;;;32.22;51.23;100965.03;5066873;27;66415;-36
2022/02/06 05:25:39;;;;;;;;;;;;;;;32.21;51.32;100959.84;5075062;27;70507;-36
2022/02/06 05:33:30;;;;;;;;;;;;;;;32.22;51.58;100956.06;5064638;28;66253;-35
2022/02/06 05:36:02;;;;;;;;;;;;;;;32.22;51.37;100948.72;5088443;27;69628;-36
2022/02/06 05:38:32;;;;;;;;;;;;;;;32.23;51.63;100944.13;5095102;27;65685;-36
2022/02/06 05:41:03;;;;;;;;;;;;;;;32.23;51.16;100941.41;5066332;28;70343;-36
2022/02/06 05:43:32;;;;;;;;;;;;;;;32.25;51.35;100942.03;5062844;28;67048;-36
2022/02/06 05:46:03;;;;;;;;;;;;;;;32.25;51.53;100932.00;5074335;27;69989;-37
2022/02/06 05:48:34;;;;;;;;;;;;;;;32.26;51.15;100930.09;5073640;28;67013;-37
2022/02/06 05:51:04;;;;;;;;;;;;;;;32.27;51.09;100924.47;5073922;28;70168;-35
2022/02/06 05:53:34;;;;;;;;;;;;;;;32.29;51.14;100918.81;5069810;27;66647;-36
2022/02/06 05:56:04;;;;;;;;;;;;;;;32.30;51.12;100928.59;5067565;27;69628;-38
2022/02/06 05:58:34;;;;;;;;;;;;;;;32.32;50.70;100912.91;5069361;28;66615;-36
2022/02/06 06:01:04;;;;;;;;;;;;;;;32.34;50.77;100912.69;5068783;27;69490;-37
2022/02/06 06:03:34;;;;;;;;;;;;;;;32.34;51.03;100908.06;5068649;28;65930;-38
2022/02/06 06:06:07;;;;;;;;;;;;;;;32.37;51.00;100902.19;5067969;28;68927;-37
2022/02/06 06:08:42;;;;;;;;;;;;;;;32.40;50.56;100900.88;5069091;28;66072;-36
2022/02/06 06:11:12;;;;;;;;;;;;;;;32.41;50.39;100895.25;5071151;28;69376;-36
2022/02/06 06:13:42;;;;;;;;;;;;;;;32.42;50.41;100888.75;5067970;28;66481;-36
2022/02/06 06:16:12;;;;;;;;;;;;;;;32.43;50.59;100885.00;5071319;27;70344;-36
2022/02/06 06:18:42;;;;;;;;;;;;;;;32.44;50.46;100870.34;5070786;28;66897;-35
2022/02/06 06:21:12;;;;;;;;;;;;;;;32.45;49.80;100882.84;5058640;28;69814;-36
2022/02/06 06:23:43;;;;;;;;;;;;;;;32.47;49.00;100879.94;5069505;28;65244;-36
2022/02/06 06:26:18;;;;;;;;;;;;;;;32.47;49.31;100875.34;5066799;27;70519;-37
2022/02/06 06:28:50;;;;;;;;;;;;;;;32.51;49.45;100864.00;5045593;28;66499;-36
2022/02/06 06:31:20;;;;;;;;;;;;;;;32.51;49.24;100862.13;5067446;28;70274;-36
2022/02/06 06:33:49;;;;;;;;;;;;;;;32.53;49.61;100861.91;5068935;28;65263;-35
2022/02/06 06:36:22;;;;;;;;;;;;;;;32.55;49.36;100865.22;5070279;27;69246;-36
2022/02/06 06:38:53;;;;;;;;;;;;;;;32.55;49.38;100862.50;5086230;27;66492;-36
2022/02/06 06:41:44;;;;;;;;;;;;;;;32.57;49.41;100846.78;5079982;28;70153;-36
2022/02/06 06:44:14;;;;;;;;;;;;;;;32.59;49.27;100850.09;5076571;28;66013;-36
2022/02/06 06:46:44;;;;;;;;;;;;;;;32.59;49.31;100844.66;5072905;28;69714;-36
2022/02/06 06:49:14;;;;;;;;;;;;;;;32.60;49.22;100832.78;5082197;28;66959;-36
2022/02/06 06:51:45;;;;;;;;;;;;;;;32.62;48.77;100838.78;5086076;27;70081;-39
2022/02/06 06:54:20;;;;;;;;;;;;;;;32.64;47.97;100832.03;5068046;28;66238;-35
2022/02/06 06:57:01;;;;;;;;;;;;;;;32.65;47.54;100831.00;5070815;28;69944;-35
2022/02/06 07:04:54;;;;;;;;;;;;;;;32.71;48.19;100821.09;5072738;28;66350;-35
2022/02/06 07:07:28;;;;;;;;;;;;;;;32.73;48.01;100818.94;5080363;28;68709;-36
2022/02/06 07:10:00;;;;;;;;;;;;;;;32.74;47.83;100819.81;5074035;28;65292;-37
2022/02/06 07:12:29;;;;;;;;;;;;;;;32.74;48.12;100812.47;5070800;28;70162;-36
2022/02/06 07:15:00;;;;;;;;;;;;;;;32.75;48.13;100803.25;5076532;28;66193;-37
2022/02/06 07:17:30;;;;;;;;;;;;;;;32.76;48.14;100804.91;5076798;28;70202;-36
2022/02/06 07:20:02;;;;;;;;;;;;;;;32.77;48.20;100800.31;5075009;27;67396;-36
2022/02/06 07:22:35;;;;;;;;;;;;;;;32.77;46.04;100803.03;5075347;28;69962;-36
2022/02/06 07:25:06;;;;;;;;;;;;;;;32.79;44.68;100795.44;5070183;27;67363;-36
2022/02/06 07:27:40;;;;;;;;;;;;;;;32.80;44.48;100803.38;5072109;28;70709;-36
2022/02/06 07:30:12;;;;;;;;;;;;;;;32.82;44.73;100789.53;5077466;27;67127;-35
2022/02/06 07:32:43;;;;;;;;;;;;;;;32.83;45.17;100783.88;5070397;28;70824;-36
2022/02/06 07:35:14;;;;;;;;;;;;;;;32.84;45.51;100787.44;5072010;28;66211;-36
2022/02/06 07:37:45;;;;;;;;;;;;;;;32.84;45.87;100777.38;5051925;28;69822;-36
2022/02/06 07:40:16;;;;;;;;;;;;;;;32.83;46.15;100775.75;5080213;28;65963;-36
2022/02/06 07:42:46;;;;;;;;;;;;;;;32.82;45.99;100767.81;5078051;28;69420;-36
2022/02/06 07:45:24;;;;;;;;;;;;;;;32.82;46.09;100774.09;5073962;27;66853;-36
2022/02/06 07:47:53;;;;;;;;;;;;;;;32.81;46.57;100767.00;5069678;27;70494;-36
2022/02/06 07:50:23;;;;;;;;;;;;;;;32.81;46.69;100764.28;5075333;28;66471;-36
2022/02/06 07:52:54;;;;;;;;;;;;;;;32.82;46.67;100767.81;5069053;28;70612;-36
2022/02/06 07:55:24;;;;;;;;;;;;;;;32.82;46.75;100768.66;5072353;27;66186;-36
2022/02/06 07:57:54;;;;;;;;;;;;;;;32.81;46.97;100764.28;5073996;28;69993;-36
2022/02/06 08:00:23;;;;;;;;;;;;;;;32.83;46.87;100769.47;5071935;28;65624;-36
2022/02/06 08:02:53;;;;;;;;;;;;;;;32.81;46.87;100767.00;5071989;28;69937;-36
2022/02/06 08:05:25;;;;;;;;;;;;;;;32.82;46.91;100763.22;5069552;28;65864;-36
2022/02/06 08:07:56;;;;;;;;;;;;;;;32.82;46.94;100763.22;5070124;28;69044;-38
2022/02/06 08:10:28;;;;;;;;;;;;;;;32.82;47.10;100757.78;5079468;28;67045;-37
2022/02/06 08:13:09;;;;;;;;;;;;;;;32.81;47.15;100761.56;5066651;28;70416;-36
2022/02/06 08:15:38;;;;;;;;;;;;;;;32.82;47.28;100765.94;5076225;28;66584;-36
2022/02/06 08:18:08;;;;;;;;;;;;;;;32.82;46.29;100765.94;5081666;27;69986;-38
2022/02/06 08:20:40;;;;;;;;;;;;;;;32.85;47.24;100768.19;5068875;28;65292;-36
2022/02/06 08:23:11;;;;;;;;;;;;;;;32.85;47.10;100768.19;5072638;28;70297;-36
2022/02/06 08:25:41;;;;;;;;;;;;;;;32.86;47.12;100763.56;5071333;28;67013;-36
2022/02/06 08:28:11;;;;;;;;;;;;;;;32.85;47.33;100761.94;5069043;28;69355;-35
2022/02/06 08:30:42;;;;;;;;;;;;;;;32.83;47.22;100764.88;5080489;28;66483;-35
2022/02/06 08:33:12;;;;;;;;;;;;;;;32.83;47.37;100759.44;5073545;28;69664;-35
2022/02/06 08:35:42;;;;;;;;;;;;;;;32.83;47.32;100764.88;5067642;28;66585;-37
2022/02/06 08:38:13;;;;;;;;;;;;;;;32.82;47.41;100760.50;5070266;28;70271;-35
2022/02/06 08:40:47;;;;;;;;;;;;;;;32.81;47.38;100760.72;5070847;28;66526;-35
2022/02/06 08:43:18;;;;;;;;;;;;;;;32.81;47.38;100764.28;5063770;28;69634;-35
2022/02/06 08:45:48;;;;;;;;;;;;;;;32.80;47.35;100765.34;5073153;27;66575;-36
2022/02/06 08:48:18;;;;;;;;;;;;;;;32.81;47.15;100774.31;5068236;27;69292;-36
2022/02/06 08:50:48;;;;;;;;;;;;;;;32.80;47.59;100776.22;5073217;28;67373;-37
2022/02/06 08:53:17;;;;;;;;;;;;;;;32.79;47.49;100782.72;5071930;28;69288;-37
2022/02/06 08:55:48;;;;;;;;;;;;;;;32.71;47.86;100764.06;5069634;28;66603;-37
2022/02/06 08:58:17;;;;;;;;;;;;;;;32.80;47.48;100778.94;5071538;28;69459;-37
2022/02/06 09:00:47;;;;;;;;;;;;;;;32.79;47.53;100790.88;5072415;28;65907;-37
2022/02/06 09:03:20;;;;;;;;;;;;;;;32.78;47.46;100783.75;5072299;28;68913;-37
2022/02/06 09:05:50;;;;;;;;;;;;;;;32.80;47.34;100791.69;5072798;28;66173;-37
2022/02/06 09:08:22;;;;;;;;;;;;;;;32.79;47.66;100795.44;5066335;28;70933;-36
2022/02/06 09:10:52;;;;;;;;;;;;;;;32.79;47.51;100801.72;5069566;28;66495;-35
2022/02/06 09:13:22;;;;;;;;;;;;;;;32.79;47.87;100801.72;5079412;28;70206;-37
2022/02/06 09:15:52;;;;;;;;;;;;;;;32.79;47.75;100804.44;5075325;28;67010;-36
2022/02/06 09:18:21;;;;;;;;;;;;;;;32.80;47.92;100806.09;5068912;27;69641;-37
2022/02/06 09:20:52;;;;;;;;;;;;;;;32.81;47.62;100804.19;5070256;28;65765;-36
2022/02/06 09:23:22;;;;;;;;;;;;;;;32.83;47.74;100810.22;5072501;28;70558;-36
2022/02/06 09:25:53;;;;;;;;;;;;;;;32.83;47.72;100813.78;5069270;27;65092;-35
2022/02/06 09:28:23;;;;;;;;;;;;;;;32.83;48.01;100802.91;5069037;28;69032;-36
2022/02/06 09:30:54;;;;;;;;;;;;;;;32.83;48.23;100805.63;5069496;28;65881;-36
2022/02/06 09:35:54;;;;;;;;;;;;;;;32.86;49.29;100816.00;5068415;27;65765;-36
2022/02/06 09:38:24;;;;;;;;;;;;;;;32.87;49.25;100819.56;5069211;28;69005;-36
2022/02/06 09:40:53;;;;;;;;;;;;;;;32.85;49.09;100819.81;5066727;28;67225;-36
2022/02/06 09:43:23;;;;;;;;;;;;;;;32.84;49.12;100825.47;5065233;27;70358;-36
2022/02/06 09:45:55;;;;;;;;;;;;;;;32.83;49.04;100824.63;5070493;27;65489;-36
2022/02/06 09:48:26;;;;;;;;;;;;;;;32.82;49.37;100823.00;5068854;28;70370;-35
2022/02/06 09:50:56;;;;;;;;;;;;;;;32.81;49.33;100832.19;5068156;27;66566;-36
2022/02/06 09:53:27;;;;;;;;;;;;;;;32.80;49.35;100835.97;5072104;28;69634;-35
2022/02/06 09:56:01;;;;;;;;;;;;;;;32.79;49.64;100836.19;5074851;28;66806;-35
2022/02/06 10:01:22;;;;;;;;;;;;;;;32.77;49.60;100850.03;5071300;27;66536;-36
2022/02/06 10:03:56;;;;;;;;;;;;;;;32.77;49.81;100855.47;5078695;27;69170;-36
2022/02/06 10:06:31;;;;;;;;;;;;;;;32.77;49.95;100858.19;5074889;27;65175;-38
2022/02/06 10:09:03;;;;;;;;;;;;;;;32.77;49.82;100858.19;5075610;27;70026;-37
2022/02/06 10:11:38;;;;;;;;;;;;;;;32.78;49.84;100865.25;5068366;27;66010;-36
2022/02/06 10:14:08;;;;;;;;;;;;;;;32.78;50.10;100870.69;5064372;27;69658;-36
2022/02/06 10:16:38;;;;;;;;;;;;;;;32.78;50.24;100869.88;5064121;28;65443;-36
2022/02/06 10:19:08;;;;;;;;;;;;;;;32.77;50.04;100874.47;5073409;28;69929;-36
2022/02/06 10:21:38;;;;;;;;;;;;;;;32.77;50.14;100871.75;5071245;28;66650;-35
2022/02/06 10:24:13;;;;;;;;;;;;;;;32.77;50.24;100874.47;5070975;28;70496;-35
2022/02/06 10:27:04;;;;;;;;;;;;;;;32.77;50.05;100881.81;5070853;28;66678;-35
2022/02/06 10:29:42;;;;;;;;;;;;;;;32.77;50.41;100869.03;5077768;28;69546;-35
2022/02/06 10:32:16;;;;;;;;;;;;;;;32.77;50.65;100877.19;5066571;27;66640;-35
2022/02/06 10:34:47;;;;;;;;;;;;;;;32.77;50.82;100881.81;5072727;27;70185;-35
2022/02/06 10:37:21;;;;;;;;;;;;;;;32.76;50.56;100882.84;5072669;27;65650;-35
2022/02/06 10:39:53;;;;;;;;;;;;;;;32.76;50.73;100883.66;5066568;28;70523;-36
2022/02/06 10:42:25;;;;;;;;;;;;;;;32.75;50.88;100882.03;5077683;28;66661;-35
2022/02/06 10:45:15;;;;;;;;;;;;;;;32.75;50.79;100882.03;5067934;28;69190;-35
2022/02/06 10:47:46;;;;;;;;;;;;;;;32.74;50.88;100880.38;5070379;28;65400;-36
2022/02/06 10:50:17;;;;;;;;;;;;;;;32.72;51.37;100883.31;5069751;28;70798;-38
2022/02/06 10:52:47;;;;;;;;;;;;;;;32.75;51.21;100886.63;5075821;27;66616;-36
2022/02/06 10:55:18;;;;;;;;;;;;;;;32.73;51.60;100884.13;5074058;28;70334;-35
2022/02/06 10:57:58;;;;;;;;;;;;;;;32.72;51.52;100887.94;5067585;27;65497;-36
2022/02/06 11:00:29;;;;;;;;;;;;;;;32.70;51.62;100890.03;5070887;28;70172;-36
2022/02/06 11:03:08;;;;;;;;;;;;;;;32.70;51.67;100895.47;5071854;28;66484;-36
2022/02/06 11:05:47;;;;;;;;;;;;;;;32.68;51.65;100897.59;5078013;27;69781;-35
2022/02/06 11:08:32;;;;;;;;;;;;;;;32.67;52.01;100904.09;5070084;28;65841;-36
2022/02/06 11:11:09;;;;;;;;;;;;;;;32.66;52.00;100907.88;5066992;28;70730;-35
2022/02/06 11:13:40;;;;;;;;;;;;;;;32.64;52.36;100908.09;5071391;27;65732;-36
2022/02/06 11:16:17;;;;;;;;;;;;;;;32.64;52.00;100912.69;5080498;27;69258;-37
2022/02/06 11:18:52;;;;;;;;;;;;;;;32.62;52.46;100915.63;5079818;27;65419;-36
2022/02/06 11:21:24;;;;;;;;;;;;;;;32.60;52.39;100917.78;5062914;27;70166;-36
2022/02/06 11:23:54;;;;;;;;;;;;;;;32.59;52.27;100920.72;5072764;27;66374;-36
2022/02/06 11:26:26;;;;;;;;;;;;;;;32.59;52.53;100920.72;5075137;27;70129;-36
2022/02/06 11:28:58;;;;;;;;;;;;;;;32.58;52.42;100929.94;5085210;27;65106;-36
2022/02/06 11:31:29;;;;;;;;;;;;;;;32.57;52.60;100929.09;5071437;28;71489;-36
2022/02/06 11:33:59;;;;;;;;;;;;;;;32.57;52.19;100933.69;5072008;27;66106;-35
2022/02/06 11:45:18;;;;;;;;;;;;;;;32.55;52.86;100957.53;5072696;28;66626;-36
2022/02/06 11:47:51;;;;;;;;;;;;;;;32.53;53.04;100959.66;5070528;28;69666;-36
2022/02/06 11:50:21;;;;;;;;;;;;;;;32.53;53.13;100963.19;5074016;28;66476;-36
2022/02/06 11:52:56;;;;;;;;;;;;;;;32.52;53.02;100964.25;5076780;28;69945;-36
2022/02/06 11:55:35;;;;;;;;;;;;;;;32.52;53.16;100963.44;5064925;28;65826;-36
2022/02/06 11:58:20;;;;;;;;;;;;;;;32.52;53.05;100974.31;5073497;27;69943;-36
2022/02/06 12:01:08;;;;;;;;;;;;;;;32.51;53.07;100968.03;5082509;27;67129;-41
2022/02/06 12:03:47;;;;;;;;;;;;;;;32.51;53.40;100975.34;5082455;27;70598;-36
2022/02/06 12:06:20;;;;;;;;;;;;;;;32.49;53.44;100970.97;5066710;28;65722;-36
2022/02/06 12:09:16;;;;;;;;;;;;;;;32.49;53.10;100981.84;5071749;28;68866;-36
2022/02/06 12:12:04;;;;;;;;;;;;;;;32.46;53.70;100982.31;5073186;28;66771;-36
2022/02/06 12:14:41;;;;;;;;;;;;;;;32.46;53.37;100987.72;5074370;27;69974;-36
2022/02/06 12:20:05;;;;;;;;;;;;;;;32.46;53.36;100997.78;5076889;28;69496;-36
2022/02/06 12:22:38;;;;;;;;;;;;;;;32.46;53.71;100995.06;5072156;27;67216;-36
2022/02/06 12:25:27;;;;;;;;;;;;;;;32.44;53.38;101000.66;5075714;28;69940;-36
2022/02/06 12:28:20;;;;;;;;;;;;;;;32.44;53.53;101006.09;5075564;27;66655;-36
2022/02/06 12:30:54;;;;;;;;;;;;;;;32.40;53.64;101002.19;5068322;28;70089;-37
2022/02/06 12:33:37;;;;;;;;;;;;;;;32.43;53.45;101015.31;5085555;27;67172;-36
2022/02/06 12:38:55;;;;;;;;;;;;;;;32.43;53.31;101020.75;5074112;27;65826;-35
2022/02/06 12:41:30;;;;;;;;;;;;;;;32.42;53.50;101018.25;5068112;27;70853;-35
2022/02/06 12:44:05;;;;;;;;;;;;;;;32.42;53.48;101024.50;5071808;28;66835;-36
2022/02/06 12:46:35;;;;;;;;;;;;;;;32.41;53.31;101022.84;5066355;27;69585;-36
2022/02/06 12:49:05;;;;;;;;;;;;;;;32.41;53.20;101025.56;5063518;27;66087;-35
2022/02/06 12:51:35;;;;;;;;;;;;;;;32.42;53.28;101029.94;5087557;27;70513;-35
2022/02/06 12:54:10;;;;;;;;;;;;;;;32.41;53.49;101022.84;5075164;27;66679;-35
2022/02/06 12:56:42;;;;;;;;;;;;;;;32.41;53.49;101028.28;5072581;28;70685;-36
2022/02/06 12:59:22;;;;;;;;;;;;;;;32.41;53.08;101039.13;5066460;28;66622;-36
2022/02/06 13:01:55;;;;;;;;;;;;;;;32.41;53.56;101041.03;5067003;28;70610;-42
2022/02/06 13:04:28;;;;;;;;;;;;;;;32.39;53.42;101052.09;5073084;28;66766;-35
2022/02/06 13:07:02;;;;;;;;;;;;;;;32.40;53.38;101052.94;5053332;28;70788;-35
2022/02/06 13:09:44;;;;;;;;;;;;;;;32.40;53.22;101058.34;5072686;27;66459;-36
2022/02/06 13:23:11;;;;;;;;;;;;;;;32.38;53.13;101072.19;5072495;28;70031;-36
2022/02/06 13:28:46;;;;;;;;;;;;;;;32.38;53.24;101085.75;5068052;28;70040;-36
2022/02/06 13:36:53;;;;;;;;;;;;;;;32.37;53.18;101086.78;5070139;27;65400;-37
2022/02/06 13:39:35;;;;;;;;;;;;;;;32.37;53.15;101084.06;5074845;27;70590;-36
2022/02/06 13:42:15;;;;;;;;;;;;;;;32.37;53.10;101092.22;5070286;28;65016;-37
2022/02/06 13:45:00;;;;;;;;;;;;;;;32.35;53.04;101091.63;5063140;28;70836;-45
2022/02/06 13:47:30;;;;;;;;;;;;;;;32.34;53.01;101095.38;5067926;28;66655;-36
2022/02/06 13:50:02;;;;;;;;;;;;;;;32.35;52.92;101110.63;5080682;27;70469;-36
2022/02/06 13:52:32;;;;;;;;;;;;;;;32.34;53.12;101097.28;5064888;28;66499;-37
2022/02/06 13:55:05;;;;;;;;;;;;;;;32.33;53.19;101104.59;5074517;28;70227;-35
2022/02/06 13:57:36;;;;;;;;;;;;;;;32.33;53.15;101098.34;5084002;27;66451;-35
2022/02/06 14:00:09;;;;;;;;;;;;;;;32.32;53.07;101097.50;5064324;28;70587;-36
2022/02/06 14:02:52;;;;;;;;;;;;;;;32.31;53.13;101093.13;5072368;27;66681;-36
2022/02/06 14:05:24;;;;;;;;;;;;;;;32.31;53.35;101093.13;5069670;27;69764;-35
2022/02/06 14:08:21;;;;;;;;;;;;;;;32.31;53.17;101097.72;5078488;27;66529;-36
2022/02/06 14:11:18;;;;;;;;;;;;;;;32.30;53.10;101098.78;5067065;27;68869;-36
2022/02/06 14:13:48;;;;;;;;;;;;;;;32.30;52.99;101102.34;5068538;28;66436;-36
2022/02/06 14:16:18;;;;;;;;;;;;;;;32.28;53.16;101104.44;5070018;27;70275;-36
2022/02/06 14:18:49;;;;;;;;;;;;;;;32.29;53.12;101106.13;5070007;28;66238;-37
2022/02/06 14:21:19;;;;;;;;;;;;;;;32.28;52.80;101104.44;5073161;27;71014;-36
2022/02/06 14:24:02;;;;;;;;;;;;;;;32.29;53.24;101106.13;5073892;28;65412;-36
2022/02/06 14:26:32;;;;;;;;;;;;;;;32.11;53.21;101082.47;5064839;28;70245;-36
2022/02/06 14:29:02;;;;;;;;;;;;;;;32.27;53.09;101102.78;5074117;27;66348;-36
2022/02/06 14:31:33;;;;;;;;;;;;;;;32.27;52.94;101102.78;5066875;28;69723;-36
2022/02/06 14:34:19;;;;;;;;;;;;;;;32.26;53.36;101098.38;5065831;28;66777;-36
2022/02/06 14:37:09;;;;;;;;;;;;;;;32.26;53.17;101095.69;5067673;27;69723;-36
2022/02/06 14:40:07;;;;;;;;;;;;;;;32.24;53.31;101097.81;5078286;27;66825;-36
2022/02/06 14:42:38;;;;;;;;;;;;;;;32.24;53.11;101108.66;5063636;27;69968;-36
2022/02/06 14:45:12;;;;;;;;;;;;;;;32.24;52.82;101108.66;5067808;28;66331;-37
2022/02/06 14:47:42;;;;;;;;;;;;;;;32.24;53.14;101103.25;5073957;28;69906;-37
2022/02/06 14:50:16;;;;;;;;;;;;;;;32.24;53.36;101108.66;5070423;28;65888;-36
2022/02/06 14:52:47;;;;;;;;;;;;;;;32.23;53.11;101101.56;5070210;28;69410;-35
2022/02/06 14:55:17;;;;;;;;;;;;;;;32.22;53.20;101110.75;5085804;27;66555;-37
2022/02/06 14:57:47;;;;;;;;;;;;;;;32.22;53.21;101111.59;5066803;27;69178;-36
2022/02/06 15:00:17;;;;;;;;;;;;;;;32.23;53.00;101112.41;5093546;27;66905;-36
2022/02/06 15:02:47;;;;;;;;;;;;;;;32.21;53.21;101109.94;5076781;28;69948;-36
2022/02/06 15:05:17;;;;;;;;;;;;;;;32.22;53.16;101114.31;5070961;27;66943;-35
2022/02/06 15:07:46;;;;;;;;;;;;;;;32.21;52.98;101111.84;5073559;28;69365;-36
2022/02/06 15:10:16;;;;;;;;;;;;;;;32.21;52.92;101111.84;5072134;28;65593;-36
2022/02/06 15:12:46;;;;;;;;;;;;;;;32.20;53.22;101107.44;5070641;28;69883;-36
2022/02/06 15:15:18;;;;;;;;;;;;;;;32.19;53.39;101103.06;5077460;27;66303;-38
2022/02/06 15:17:51;;;;;;;;;;;;;;;32.20;53.09;101107.44;5072237;28;70006;-36
2022/02/06 15:20:21;;;;;;;;;;;;;;;32.18;53.06;101104.09;5068512;28;65734;-37
2022/02/06 15:22:51;;;;;;;;;;;;;;;32.19;53.21;101108.50;5074614;28;69401;-36
2022/02/06 15:25:21;;;;;;;;;;;;;;;32.18;53.20;101110.41;5072385;28;65476;-35
2022/02/06 15:27:50;;;;;;;;;;;;;;;32.18;53.21;101109.53;5070819;28;68836;-35
2022/02/06 15:30:20;;;;;;;;;;;;;;;32.17;53.10;101107.88;5072069;28;66626;-37
2022/02/06 15:32:51;;;;;;;;;;;;;;;32.17;53.35;101108.72;5080963;27;70200;-36
2022/02/06 15:35:21;;;;;;;;;;;;;;;32.18;53.28;101106.81;5078416;27;65574;-37
2022/02/06 15:37:52;;;;;;;;;;;;;;;32.16;53.43;101101.63;5077164;28;69202;-37
2022/02/06 15:40:23;;;;;;;;;;;;;;;32.16;53.21;101106.25;5040508;28;66806;-37
2022/02/06 15:42:54;;;;;;;;;;;;;;;32.16;53.18;101101.63;5049655;28;70093;-36
2022/02/06 15:45:25;;;;;;;;;;;;;;;32.15;53.07;101104.56;5062729;28;65929;-36
2022/02/06 15:47:55;;;;;;;;;;;;;;;32.14;53.14;101105.63;5070563;28;70040;-36